sensor_id;sensor_type;location;lat;lon;timestamp;temperature;humidity
15203;DHT22;7702;51.046;5.184;2022-12-18T00:01:02;-6.90;99.90
15203;DHT22;7702;51.046;5.184;2022-12-18T00:03:32;-6.90;99.90
15203;DHT22;7702;51.046;5.184;2022-12-18T00:05:58;-7.00;99.90
15203;DHT22;7702;51.046;5.184;2022-12-18T00:08:25;-7.00;99.90
15203;DHT22;7702;51.046;5.184;2022-12-18T00:10:50;-7.00;99.90
15203;DHT22;7702;51.046;5.184;2022-12-18T00:13:16;-7.10;99.90
15203;DHT22;7702;51.046;5.184;2022-12-18T00:15:42;-7.20;99.90
15203;DHT22;7702;51.046;5.184;2022-12-18T00:18:08;-7.30;99.90
15203;DHT22;7702;51.046;5.184;2022-12-18T00:20:38;-7.30;99.90
15203;DHT22;7702;51.046;5.184;2022-12-18T00:23:05;-7.30;99.90
15203;DHT22;7702;51.046;5.184;2022-12-18T00:25:35;-7.30;99.90
15203;DHT22;7702;51.046;5.184;2022-12-18T00:28:03;-7.40;99.90
15203;DHT22;7702;51.046;5.184;2022-12-18T00:30:30;-7.40;99.90
15203;DHT22;7702;51.046;5.184;2022-12-18T00:32:56;-7.40;99.90
15203;DHT22;7702;51.046;5.184;2022-12-18T00:35:22;-7.50;99.90
15203;DHT22;7702;51.046;5.184;2022-12-18T00:37:48;-7.50;99.90
15203;DHT22;7702;51.046;5.184;2022-12-18T00:40:14;-7.40;99.90
15203;DHT22;7702;51.046;5.184;2022-12-18T00:42:39;-7.40;99.90
15203;DHT22;7702;51.046;5.184;2022-12-18T00:45:27;-7.40;99.90
15203;DHT22;7702;51.046;5.184;2022-12-18T00:47:55;-7.30;99.90
15203;DHT22;7702;51.046;5.184;2022-12-18T00:50:22;-7.40;99.90
15203;DHT22;7702;51.046;5.184;2022-12-18T00:52:48;-7.40;99.90
15203;DHT22;7702;51.046;5.184;2022-12-18T00:55:14;-7.40;99.90
15203;DHT22;7702;51.046;5.184;2022-12-18T00:57:40;-7.40;99.90
15203;DHT22;7702;51.046;5.184;2022-12-18T01:00:09;-7.40;99.90
15203;DHT22;7702;51.046;5.184;2022-12-18T01:02:35;-7.30;99.90
15203;DHT22;7702;51.046;5.184;2022-12-18T01:05:01;-7.30;99.90
15203;DHT22;7702;51.046;5.184;2022-12-18T01:07:27;-7.40;99.90
15203;DHT22;7702;51.046;5.184;2022-12-18T01:09:53;-7.40;99.90
15203;DHT22;7702;51.046;5.184;2022-12-18T01:12:19;-7.50;99.90
15203;DHT22;7702;51.046;5.184;2022-12-18T01:14:45;-7.60;99.90
15203;DHT22;7702;51.046;5.184;2022-12-18T01:17:10;-7.60;99.90
15203;DHT22;7702;51.046;5.184;2022-12-18T01:19:36;-7.70;99.90
15203;DHT22;7702;51.046;5.184;2022-12-18T01:22:02;-7.70;99.90
15203;DHT22;7702;51.046;5.184;2022-12-18T01:24:28;-7.80;99.90
15203;DHT22;7702;51.046;5.184;2022-12-18T01:26:54;-7.80;99.90
15203;DHT22;7702;51.046;5.184;2022-12-18T01:29:20;-7.80;99.90
15203;DHT22;7702;51.046;5.184;2022-12-18T01:31:46;-7.90;99.90
15203;DHT22;7702;51.046;5.184;2022-12-18T01:34:12;-7.90;99.90
15203;DHT22;7702;51.046;5.184;2022-12-18T01:36:39;-8.00;99.90
15203;DHT22;7702;51.046;5.184;2022-12-18T01:39:11;-8.00;99.90
15203;DHT22;7702;51.046;5.184;2022-12-18T01:41:38;-8.00;99.90
15203;DHT22;7702;51.046;5.184;2022-12-18T01:52:38;-8.00;99.90
15203;DHT22;7702;51.046;5.184;2022-12-18T01:55:07;-8.00;99.90
15203;DHT22;7702;51.046;5.184;2022-12-18T01:57:33;-8.00;99.90
15203;DHT22;7702;51.046;5.184;2022-12-18T02:00:01;-8.00;99.90
15203;DHT22;7702;51.046;5.184;2022-12-18T02:02:29;-8.10;99.90
15203;DHT22;7702;51.046;5.184;2022-12-18T02:04:55;-8.10;99.90
15203;DHT22;7702;51.046;5.184;2022-12-18T02:10:31;-8.20;99.90
15203;DHT22;7702;51.046;5.184;2022-12-18T02:15:44;-8.10;99.90
15203;DHT22;7702;51.046;5.184;2022-12-18T02:18:19;-8.10;99.90
15203;DHT22;7702;51.046;5.184;2022-12-18T02:26:06;-8.30;99.90
15203;DHT22;7702;51.046;5.184;2022-12-18T02:29:42;-8.30;99.90
15203;DHT22;7702;51.046;5.184;2022-12-18T02:31:42;-8.30;99.90
15203;DHT22;7702;51.046;5.184;2022-12-18T02:34:09;-8.20;99.90
15203;DHT22;7702;51.046;5.184;2022-12-18T02:36:38;-8.20;99.90
15203;DHT22;7702;51.046;5.184;2022-12-18T02:39:07;-8.20;99.90
15203;DHT22;7702;51.046;5.184;2022-12-18T02:41:34;-8.30;99.90
15203;DHT22;7702;51.046;5.184;2022-12-18T02:44:08;-8.20;99.90
15203;DHT22;7702;51.046;5.184;2022-12-18T02:46:40;-8.20;99.90
15203;DHT22;7702;51.046;5.184;2022-12-18T02:49:36;-8.10;99.90
15203;DHT22;7702;51.046;5.184;2022-12-18T03:00:14;-8.10;99.90
15203;DHT22;7702;51.046;5.184;2022-12-18T03:05:34;-8.20;99.90
15203;DHT22;7702;51.046;5.184;2022-12-18T03:08:08;-8.20;99.90
15203;DHT22;7702;51.046;5.184;2022-12-18T03:10:45;-8.30;99.90
15203;DHT22;7702;51.046;5.184;2022-12-18T03:13:17;-8.30;99.90
15203;DHT22;7702;51.046;5.184;2022-12-18T03:15:49;-8.20;99.90
15203;DHT22;7702;51.046;5.184;2022-12-18T03:20:49;-8.10;99.90
15203;DHT22;7702;51.046;5.184;2022-12-18T03:23:18;-8.10;99.90
15203;DHT22;7702;51.046;5.184;2022-12-18T03:25:46;-8.10;99.90
15203;DHT22;7702;51.046;5.184;2022-12-18T03:28:20;-8.10;99.90
15203;DHT22;7702;51.046;5.184;2022-12-18T03:30:47;-8.10;99.90
15203;DHT22;7702;51.046;5.184;2022-12-18T03:33:16;-8.00;99.90
15203;DHT22;7702;51.046;5.184;2022-12-18T03:35:45;-8.00;99.90
15203;DHT22;7702;51.046;5.184;2022-12-18T03:38:11;-8.20;99.90
15203;DHT22;7702;51.046;5.184;2022-12-18T03:41:23;-8.30;99.90
15203;DHT22;7702;51.046;5.184;2022-12-18T03:43:52;-8.30;99.90
15203;DHT22;7702;51.046;5.184;2022-12-18T03:48:55;-8.40;99.90
15203;DHT22;7702;51.046;5.184;2022-12-18T03:54:02;-8.30;99.90
15203;DHT22;7702;51.046;5.184;2022-12-18T03:56:32;-8.40;99.90
15203;DHT22;7702;51.046;5.184;2022-12-18T03:58:59;-8.50;99.90
15203;DHT22;7702;51.046;5.184;2022-12-18T04:01:49;-8.60;99.90
15203;DHT22;7702;51.046;5.184;2022-12-18T04:04:17;-8.60;99.90
15203;DHT22;7702;51.046;5.184;2022-12-18T04:06:46;-8.80;99.90
15203;DHT22;7702;51.046;5.184;2022-12-18T04:09:14;-8.70;99.90
15203;DHT22;7702;51.046;5.184;2022-12-18T04:11:41;-8.70;99.90
15203;DHT22;7702;51.046;5.184;2022-12-18T04:14:09;-8.80;99.90
15203;DHT22;7702;51.046;5.184;2022-12-18T04:16:34;-8.80;99.90
15203;DHT22;7702;51.046;5.184;2022-12-18T04:19:00;-8.80;99.90
15203;DHT22;7702;51.046;5.184;2022-12-18T04:21:26;-8.80;99.90
15203;DHT22;7702;51.046;5.184;2022-12-18T04:23:51;-8.70;99.90
15203;DHT22;7702;51.046;5.184;2022-12-18T04:26:17;-8.80;99.90
15203;DHT22;7702;51.046;5.184;2022-12-18T04:28:43;-8.80;99.90
15203;DHT22;7702;51.046;5.184;2022-12-18T04:31:09;-8.80;99.90
15203;DHT22;7702;51.046;5.184;2022-12-18T04:33:35;-8.80;99.90
15203;DHT22;7702;51.046;5.184;2022-12-18T04:36:01;-8.90;99.90
15203;DHT22;7702;51.046;5.184;2022-12-18T04:38:26;-8.80;99.90
15203;DHT22;7702;51.046;5.184;2022-12-18T04:40:52;-8.80;99.90
15203;DHT22;7702;51.046;5.184;2022-12-18T04:43:18;-8.90;99.90
15203;DHT22;7702;51.046;5.184;2022-12-18T04:45:43;-8.90;99.90
15203;DHT22;7702;51.046;5.184;2022-12-18T04:48:10;-8.90;99.90
15203;DHT22;7702;51.046;5.184;2022-12-18T04:50:36;-8.80;99.90
15203;DHT22;7702;51.046;5.184;2022-12-18T04:53:01;-8.70;99.90
15203;DHT22;7702;51.046;5.184;2022-12-18T04:55:27;-8.70;99.90
15203;DHT22;7702;51.046;5.184;2022-12-18T04:57:53;-8.60;99.90
15203;DHT22;7702;51.046;5.184;2022-12-18T05:00:19;-8.50;99.90
15203;DHT22;7702;51.046;5.184;2022-12-18T05:02:45;-8.50;99.90
15203;DHT22;7702;51.046;5.184;2022-12-18T05:05:11;-8.50;99.90
15203;DHT22;7702;51.046;5.184;2022-12-18T05:07:37;-8.50;99.90
15203;DHT22;7702;51.046;5.184;2022-12-18T05:10:09;-8.50;99.90
15203;DHT22;7702;51.046;5.184;2022-12-18T05:12:34;-8.60;99.90
15203;DHT22;7702;51.046;5.184;2022-12-18T05:15:20;-8.50;99.90
15203;DHT22;7702;51.046;5.184;2022-12-18T05:17:46;-8.50;99.90
15203;DHT22;7702;51.046;5.184;2022-12-18T05:20:11;-8.50;99.90
15203;DHT22;7702;51.046;5.184;2022-12-18T05:22:37;-8.60;99.90
15203;DHT22;7702;51.046;5.184;2022-12-18T05:25:03;-8.70;99.90
15203;DHT22;7702;51.046;5.184;2022-12-18T05:27:29;-8.80;99.90
15203;DHT22;7702;51.046;5.184;2022-12-18T05:29:56;-8.80;99.90
15203;DHT22;7702;51.046;5.184;2022-12-18T05:32:21;-8.80;99.90
15203;DHT22;7702;51.046;5.184;2022-12-18T05:34:47;-8.80;99.90
15203;DHT22;7702;51.046;5.184;2022-12-18T05:37:13;-8.80;99.90
15203;DHT22;7702;51.046;5.184;2022-12-18T05:39:38;-8.80;99.90
15203;DHT22;7702;51.046;5.184;2022-12-18T05:42:04;-8.70;99.90
15203;DHT22;7702;51.046;5.184;2022-12-18T05:44:30;-8.70;99.90
15203;DHT22;7702;51.046;5.184;2022-12-18T05:46:55;-8.70;99.90
15203;DHT22;7702;51.046;5.184;2022-12-18T05:49:21;-8.70;99.90
15203;DHT22;7702;51.046;5.184;2022-12-18T05:51:47;-8.70;99.90
15203;DHT22;7702;51.046;5.184;2022-12-18T05:54:13;-8.70;99.90
15203;DHT22;7702;51.046;5.184;2022-12-18T05:56:38;-8.70;99.90
15203;DHT22;7702;51.046;5.184;2022-12-18T05:59:04;-8.70;99.90
15203;DHT22;7702;51.046;5.184;2022-12-18T06:01:30;-8.70;99.90
15203;DHT22;7702;51.046;5.184;2022-12-18T06:03:56;-8.70;99.90
15203;DHT22;7702;51.046;5.184;2022-12-18T06:06:23;-8.80;99.90
15203;DHT22;7702;51.046;5.184;2022-12-18T06:08:51;-8.90;99.90
15203;DHT22;7702;51.046;5.184;2022-12-18T06:11:19;-8.90;99.90
15203;DHT22;7702;51.046;5.184;2022-12-18T06:13:45;-8.90;99.90
15203;DHT22;7702;51.046;5.184;2022-12-18T06:16:12;-8.90;99.90
15203;DHT22;7702;51.046;5.184;2022-12-18T06:18:38;-9.00;99.90
15203;DHT22;7702;51.046;5.184;2022-12-18T06:21:04;-9.00;99.90
15203;DHT22;7702;51.046;5.184;2022-12-18T06:23:30;-9.00;99.90
15203;DHT22;7702;51.046;5.184;2022-12-18T06:25:55;-9.00;99.90
15203;DHT22;7702;51.046;5.184;2022-12-18T06:28:21;-9.00;99.90
15203;DHT22;7702;51.046;5.184;2022-12-18T06:30:48;-8.90;99.90
15203;DHT22;7702;51.046;5.184;2022-12-18T06:33:15;-9.00;99.90
15203;DHT22;7702;51.046;5.184;2022-12-18T06:35:41;-8.90;99.90
15203;DHT22;7702;51.046;5.184;2022-12-18T06:38:07;-8.90;99.90
15203;DHT22;7702;51.046;5.184;2022-12-18T06:40:33;-8.90;99.90
15203;DHT22;7702;51.046;5.184;2022-12-18T06:42:58;-8.90;99.90
15203;DHT22;7702;51.046;5.184;2022-12-18T06:45:24;-8.90;99.90
15203;DHT22;7702;51.046;5.184;2022-12-18T06:47:51;-8.90;99.90
15203;DHT22;7702;51.046;5.184;2022-12-18T06:50:17;-8.90;99.90
15203;DHT22;7702;51.046;5.184;2022-12-18T06:52:42;-8.90;99.90
15203;DHT22;7702;51.046;5.184;2022-12-18T06:55:10;-8.90;99.90
15203;DHT22;7702;51.046;5.184;2022-12-18T06:57:36;-8.90;99.90
15203;DHT22;7702;51.046;5.184;2022-12-18T07:00:04;-8.90;99.90
15203;DHT22;7702;51.046;5.184;2022-12-18T07:02:30;-8.90;99.90
15203;DHT22;7702;51.046;5.184;2022-12-18T07:04:55;-8.80;99.90
15203;DHT22;7702;51.046;5.184;2022-12-18T07:07:21;-8.80;99.90
15203;DHT22;7702;51.046;5.184;2022-12-18T07:09:48;-8.70;99.90
15203;DHT22;7702;51.046;5.184;2022-12-18T07:12:14;-8.70;99.90
15203;DHT22;7702;51.046;5.184;2022-12-18T07:14:40;-8.70;99.90
15203;DHT22;7702;51.046;5.184;2022-12-18T07:17:06;-8.60;99.90
15203;DHT22;7702;51.046;5.184;2022-12-18T07:19:31;-8.40;99.90
15203;DHT22;7702;51.046;5.184;2022-12-18T07:21:57;-8.30;99.90
15203;DHT22;7702;51.046;5.184;2022-12-18T07:24:23;-8.20;99.90
15203;DHT22;7702;51.046;5.184;2022-12-18T07:26:49;-8.10;99.90
15203;DHT22;7702;51.046;5.184;2022-12-18T07:29:15;-8.00;99.90
15203;DHT22;7702;51.046;5.184;2022-12-18T07:31:41;-7.90;99.90
15203;DHT22;7702;51.046;5.184;2022-12-18T07:34:11;-7.90;99.90
15203;DHT22;7702;51.046;5.184;2022-12-18T07:36:37;-7.90;99.90
15203;DHT22;7702;51.046;5.184;2022-12-18T07:39:03;-7.90;99.90
15203;DHT22;7702;51.046;5.184;2022-12-18T07:41:29;-7.80;99.90
15203;DHT22;7702;51.046;5.184;2022-12-18T07:43:54;-7.70;99.90
15203;DHT22;7702;51.046;5.184;2022-12-18T07:46:20;-7.80;99.90
15203;DHT22;7702;51.046;5.184;2022-12-18T07:48:46;-7.70;99.90
15203;DHT22;7702;51.046;5.184;2022-12-18T07:51:12;-7.70;99.90
15203;DHT22;7702;51.046;5.184;2022-12-18T07:53:38;-7.60;99.90
15203;DHT22;7702;51.046;5.184;2022-12-18T07:56:06;-7.60;99.90
15203;DHT22;7702;51.046;5.184;2022-12-18T07:58:33;-7.50;99.90
15203;DHT22;7702;51.046;5.184;2022-12-18T08:01:17;-7.50;99.90
15203;DHT22;7702;51.046;5.184;2022-12-18T08:03:43;-7.50;99.90
15203;DHT22;7702;51.046;5.184;2022-12-18T08:06:09;-7.50;99.90
15203;DHT22;7702;51.046;5.184;2022-12-18T08:08:36;-7.40;99.90
15203;DHT22;7702;51.046;5.184;2022-12-18T08:11:02;-7.30;99.90
15203;DHT22;7702;51.046;5.184;2022-12-18T08:13:28;-7.20;99.90
15203;DHT22;7702;51.046;5.184;2022-12-18T08:16:05;-7.20;99.90
15203;DHT22;7702;51.046;5.184;2022-12-18T08:18:32;-7.20;99.90
15203;DHT22;7702;51.046;5.184;2022-12-18T08:21:10;-7.00;99.90
15203;DHT22;7702;51.046;5.184;2022-12-18T08:23:37;-7.00;99.90
15203;DHT22;7702;51.046;5.184;2022-12-18T08:26:03;-6.90;99.90
15203;DHT22;7702;51.046;5.184;2022-12-18T08:28:29;-6.90;99.90
15203;DHT22;7702;51.046;5.184;2022-12-18T08:30:55;-6.80;99.90
15203;DHT22;7702;51.046;5.184;2022-12-18T08:33:20;-6.70;99.90
15203;DHT22;7702;51.046;5.184;2022-12-18T08:35:46;-6.70;99.90
15203;DHT22;7702;51.046;5.184;2022-12-18T08:38:12;-6.60;99.90
15203;DHT22;7702;51.046;5.184;2022-12-18T08:40:37;-6.60;99.90
15203;DHT22;7702;51.046;5.184;2022-12-18T08:43:03;-6.50;99.90
15203;DHT22;7702;51.046;5.184;2022-12-18T08:45:48;-6.40;99.90
15203;DHT22;7702;51.046;5.184;2022-12-18T08:48:13;-6.30;99.90
15203;DHT22;7702;51.046;5.184;2022-12-18T08:50:40;-6.20;99.90
15203;DHT22;7702;51.046;5.184;2022-12-18T08:53:06;-6.10;99.90
15203;DHT22;7702;51.046;5.184;2022-12-18T08:55:31;-5.90;99.90
15203;DHT22;7702;51.046;5.184;2022-12-18T08:57:57;-5.90;99.90
15203;DHT22;7702;51.046;5.184;2022-12-18T09:00:23;-5.80;99.90
15203;DHT22;7702;51.046;5.184;2022-12-18T09:02:49;-5.70;99.90
15203;DHT22;7702;51.046;5.184;2022-12-18T09:05:14;-5.60;99.90
15203;DHT22;7702;51.046;5.184;2022-12-18T09:07:40;-5.50;99.90
15203;DHT22;7702;51.046;5.184;2022-12-18T09:10:07;-5.50;99.90
15203;DHT22;7702;51.046;5.184;2022-12-18T09:12:32;-5.40;99.90
15203;DHT22;7702;51.046;5.184;2022-12-18T09:14:59;-5.30;99.90
15203;DHT22;7702;51.046;5.184;2022-12-18T09:17:24;-5.20;99.90
15203;DHT22;7702;51.046;5.184;2022-12-18T09:19:50;-5.10;99.90
15203;DHT22;7702;51.046;5.184;2022-12-18T09:22:16;-5.10;99.90
15203;DHT22;7702;51.046;5.184;2022-12-18T09:24:42;-4.90;99.90
15203;DHT22;7702;51.046;5.184;2022-12-18T09:27:08;-4.90;99.90
15203;DHT22;7702;51.046;5.184;2022-12-18T09:29:34;-4.80;99.90
15203;DHT22;7702;51.046;5.184;2022-12-18T09:32:00;-4.80;99.90
15203;DHT22;7702;51.046;5.184;2022-12-18T09:34:25;-4.70;99.90
15203;DHT22;7702;51.046;5.184;2022-12-18T09:36:51;-4.50;99.90
15203;DHT22;7702;51.046;5.184;2022-12-18T09:39:17;-4.40;99.90
15203;DHT22;7702;51.046;5.184;2022-12-18T09:44:25;-4.30;99.90
15203;DHT22;7702;51.046;5.184;2022-12-18T09:46:54;-4.10;99.90
15203;DHT22;7702;51.046;5.184;2022-12-18T09:49:22;-4.00;99.90
15203;DHT22;7702;51.046;5.184;2022-12-18T09:51:54;-3.80;99.90
15203;DHT22;7702;51.046;5.184;2022-12-18T09:54:38;-3.70;99.90
15203;DHT22;7702;51.046;5.184;2022-12-18T09:57:04;-3.60;99.90
15203;DHT22;7702;51.046;5.184;2022-12-18T09:59:38;-3.50;99.90
15203;DHT22;7702;51.046;5.184;2022-12-18T10:02:17;-3.50;99.90
15203;DHT22;7702;51.046;5.184;2022-12-18T10:04:55;-3.40;99.90
15203;DHT22;7702;51.046;5.184;2022-12-18T10:07:55;-3.40;99.90
15203;DHT22;7702;51.046;5.184;2022-12-18T10:19:10;-3.00;99.90
15203;DHT22;7702;51.046;5.184;2022-12-18T10:21:51;-3.00;99.90
15203;DHT22;7702;51.046;5.184;2022-12-18T10:24:39;-2.90;99.90
15203;DHT22;7702;51.046;5.184;2022-12-18T10:27:17;-2.80;99.90
15203;DHT22;7702;51.046;5.184;2022-12-18T10:29:44;-2.80;99.90
15203;DHT22;7702;51.046;5.184;2022-12-18T10:32:30;-2.70;99.90
15203;DHT22;7702;51.046;5.184;2022-12-18T10:34:57;-2.60;99.90
15203;DHT22;7702;51.046;5.184;2022-12-18T10:37:26;-2.50;99.90
15203;DHT22;7702;51.046;5.184;2022-12-18T10:40:15;-2.60;99.90
15203;DHT22;7702;51.046;5.184;2022-12-18T10:42:41;-2.60;99.90
15203;DHT22;7702;51.046;5.184;2022-12-18T10:45:16;-2.60;99.90
15203;DHT22;7702;51.046;5.184;2022-12-18T10:47:49;-2.60;99.90
15203;DHT22;7702;51.046;5.184;2022-12-18T10:50:23;-2.60;99.90
15203;DHT22;7702;51.046;5.184;2022-12-18T10:52:59;-2.50;99.90
15203;DHT22;7702;51.046;5.184;2022-12-18T10:55:37;-2.50;99.90
15203;DHT22;7702;51.046;5.184;2022-12-18T11:03:35;-2.40;99.90
15203;DHT22;7702;51.046;5.184;2022-12-18T11:06:15;-2.40;99.90
15203;DHT22;7702;51.046;5.184;2022-12-18T11:08:43;-2.30;99.90
15203;DHT22;7702;51.046;5.184;2022-12-18T11:11:21;-2.20;99.90
15203;DHT22;7702;51.046;5.184;2022-12-18T11:14:06;-2.10;99.90
15203;DHT22;7702;51.046;5.184;2022-12-18T11:16:44;-2.10;99.90
15203;DHT22;7702;51.046;5.184;2022-12-18T11:22:00;-1.90;99.90
15203;DHT22;7702;51.046;5.184;2022-12-18T11:24:33;-1.80;99.90
15203;DHT22;7702;51.046;5.184;2022-12-18T11:27:05;-1.80;99.90
15203;DHT22;7702;51.046;5.184;2022-12-18T11:29:36;-1.70;99.90
15203;DHT22;7702;51.046;5.184;2022-12-18T11:35:17;-1.50;99.90
15203;DHT22;7702;51.046;5.184;2022-12-18T11:37:49;-1.50;99.90
15203;DHT22;7702;51.046;5.184;2022-12-18T11:40:27;-1.40;99.90
15203;DHT22;7702;51.046;5.184;2022-12-18T11:45:30;-1.30;99.90
15203;DHT22;7702;51.046;5.184;2022-12-18T11:48:12;-1.30;99.90
15203;DHT22;7702;51.046;5.184;2022-12-18T11:53:10;-1.10;99.90
15203;DHT22;7702;51.046;5.184;2022-12-18T11:58:40;-1.00;99.90
15203;DHT22;7702;51.046;5.184;2022-12-18T12:09:29;-0.90;99.90
15203;DHT22;7702;51.046;5.184;2022-12-18T12:22:49;-0.50;99.90
15203;DHT22;7702;51.046;5.184;2022-12-18T12:25:33;-0.50;99.90
15203;DHT22;7702;51.046;5.184;2022-12-18T12:28:12;-0.40;99.90
15203;DHT22;7702;51.046;5.184;2022-12-18T12:39:07;-0.30;99.90
15203;DHT22;7702;51.046;5.184;2022-12-18T12:41:35;-0.30;99.90
15203;DHT22;7702;51.046;5.184;2022-12-18T12:44:43;-0.20;99.90
15203;DHT22;7702;51.046;5.184;2022-12-18T12:47:16;-0.20;99.90
15203;DHT22;7702;51.046;5.184;2022-12-18T12:49:43;-0.10;99.90
15203;DHT22;7702;51.046;5.184;2022-12-18T12:52:18;-0.10;99.90
15203;DHT22;7702;51.046;5.184;2022-12-18T12:54:48;-0.10;99.90
15203;DHT22;7702;51.046;5.184;2022-12-18T13:00:09;0.00;99.90
15203;DHT22;7702;51.046;5.184;2022-12-18T13:08:07;0.00;99.90
15203;DHT22;7702;51.046;5.184;2022-12-18T13:20:44;0.20;99.90
15203;DHT22;7702;51.046;5.184;2022-12-18T13:30:57;0.40;99.90
15203;DHT22;7702;51.046;5.184;2022-12-18T13:33:37;0.40;99.90
15203;DHT22;7702;51.046;5.184;2022-12-18T13:38:47;0.50;99.90
15203;DHT22;7702;51.046;5.184;2022-12-18T13:41:33;0.60;99.90
15203;DHT22;7702;51.046;5.184;2022-12-18T13:44:36;0.50;99.90
15203;DHT22;7702;51.046;5.184;2022-12-18T13:47:04;0.60;99.90
15203;DHT22;7702;51.046;5.184;2022-12-18T13:49:43;0.60;99.90
15203;DHT22;7702;51.046;5.184;2022-12-18T13:52:20;0.70;99.90
15203;DHT22;7702;51.046;5.184;2022-12-18T13:54:52;0.60;99.90
15203;DHT22;7702;51.046;5.184;2022-12-18T13:57:32;0.60;99.90
15203;DHT22;7702;51.046;5.184;2022-12-18T14:00:14;0.60;99.90
15203;DHT22;7702;51.046;5.184;2022-12-18T14:02:45;0.60;99.90
15203;DHT22;7702;51.046;5.184;2022-12-18T14:05:40;0.60;99.90
15203;DHT22;7702;51.046;5.184;2022-12-18T14:08:12;0.60;99.90
15203;DHT22;7702;51.046;5.184;2022-12-18T14:10:44;0.60;99.90
15203;DHT22;7702;51.046;5.184;2022-12-18T14:13:18;0.60;99.90
15203;DHT22;7702;51.046;5.184;2022-12-18T14:15:47;0.50;99.90
15203;DHT22;7702;51.046;5.184;2022-12-18T14:18:24;0.60;99.90
15203;DHT22;7702;51.046;5.184;2022-12-18T14:20:52;0.60;99.90
15203;DHT22;7702;51.046;5.184;2022-12-18T14:23:41;0.50;99.90
15203;DHT22;7702;51.046;5.184;2022-12-18T14:28:48;0.50;99.90
15203;DHT22;7702;51.046;5.184;2022-12-18T14:31:41;0.50;99.90
15203;DHT22;7702;51.046;5.184;2022-12-18T14:34:15;0.50;99.90
15203;DHT22;7702;51.046;5.184;2022-12-18T14:36:41;0.50;99.90
15203;DHT22;7702;51.046;5.184;2022-12-18T14:39:17;0.50;99.90
15203;DHT22;7702;51.046;5.184;2022-12-18T14:41:43;0.50;99.90
15203;DHT22;7702;51.046;5.184;2022-12-18T14:44:12;0.50;99.90
15203;DHT22;7702;51.046;5.184;2022-12-18T14:46:38;0.50;99.90
15203;DHT22;7702;51.046;5.184;2022-12-18T14:49:31;0.50;99.90
15203;DHT22;7702;51.046;5.184;2022-12-18T14:51:59;0.40;99.90
15203;DHT22;7702;51.046;5.184;2022-12-18T14:54:26;0.30;99.90
15203;DHT22;7702;51.046;5.184;2022-12-18T14:57:29;0.30;99.90
15203;DHT22;7702;51.046;5.184;2022-12-18T15:00:15;0.30;99.90
15203;DHT22;7702;51.046;5.184;2022-12-18T15:02:42;0.30;99.90
15203;DHT22;7702;51.046;5.184;2022-12-18T15:05:24;0.30;99.90
15203;DHT22;7702;51.046;5.184;2022-12-18T15:07:52;0.30;99.90
15203;DHT22;7702;51.046;5.184;2022-12-18T15:10:30;0.20;99.90
15203;DHT22;7702;51.046;5.184;2022-12-18T15:15:52;0.20;99.90
15203;DHT22;7702;51.046;5.184;2022-12-18T15:18:20;0.10;99.90
15203;DHT22;7702;51.046;5.184;2022-12-18T15:20:53;0.10;99.90
15203;DHT22;7702;51.046;5.184;2022-12-18T15:23:26;0.00;99.90
15203;DHT22;7702;51.046;5.184;2022-12-18T15:26:14;0.00;99.90
15203;DHT22;7702;51.046;5.184;2022-12-18T15:34:01;-0.10;99.90
15203;DHT22;7702;51.046;5.184;2022-12-18T15:36:29;0.00;99.90
15203;DHT22;7702;51.046;5.184;2022-12-18T15:38:56;0.00;99.90
15203;DHT22;7702;51.046;5.184;2022-12-18T15:41:25;0.10;99.90
15203;DHT22;7702;51.046;5.184;2022-12-18T15:43:52;0.10;99.90
15203;DHT22;7702;51.046;5.184;2022-12-18T15:46:20;0.10;99.90
15203;DHT22;7702;51.046;5.184;2022-12-18T15:48:49;0.10;99.90
15203;DHT22;7702;51.046;5.184;2022-12-18T15:51:32;0.20;99.90
15203;DHT22;7702;51.046;5.184;2022-12-18T15:54:00;0.20;99.90
15203;DHT22;7702;51.046;5.184;2022-12-18T15:56:26;0.30;99.90
15203;DHT22;7702;51.046;5.184;2022-12-18T15:59:16;0.30;99.90
15203;DHT22;7702;51.046;5.184;2022-12-18T16:01:43;0.30;99.90
15203;DHT22;7702;51.046;5.184;2022-12-18T16:04:13;0.30;99.90
15203;DHT22;7702;51.046;5.184;2022-12-18T16:06:40;0.40;99.90
15203;DHT22;7702;51.046;5.184;2022-12-18T16:09:06;0.40;99.90
15203;DHT22;7702;51.046;5.184;2022-12-18T16:11:34;0.40;99.90
15203;DHT22;7702;51.046;5.184;2022-12-18T16:14:05;0.50;99.90
15203;DHT22;7702;51.046;5.184;2022-12-18T16:16:31;0.50;99.90
15203;DHT22;7702;51.046;5.184;2022-12-18T16:18:56;0.50;99.90
15203;DHT22;7702;51.046;5.184;2022-12-18T16:21:22;0.60;99.90
15203;DHT22;7702;51.046;5.184;2022-12-18T16:23:48;0.60;99.90
15203;DHT22;7702;51.046;5.184;2022-12-18T16:26:14;0.60;99.90
15203;DHT22;7702;51.046;5.184;2022-12-18T16:28:39;0.60;99.90
15203;DHT22;7702;51.046;5.184;2022-12-18T16:31:07;0.60;99.90
15203;DHT22;7702;51.046;5.184;2022-12-18T16:33:33;0.60;99.90
15203;DHT22;7702;51.046;5.184;2022-12-18T16:35:59;0.70;99.90
15203;DHT22;7702;51.046;5.184;2022-12-18T16:38:24;0.70;99.90
15203;DHT22;7702;51.046;5.184;2022-12-18T16:40:50;0.70;99.90
15203;DHT22;7702;51.046;5.184;2022-12-18T16:43:34;0.70;99.90
15203;DHT22;7702;51.046;5.184;2022-12-18T16:46:00;0.70;99.90
15203;DHT22;7702;51.046;5.184;2022-12-18T16:48:27;0.80;99.90
15203;DHT22;7702;51.046;5.184;2022-12-18T16:51:00;0.80;99.90
15203;DHT22;7702;51.046;5.184;2022-12-18T16:53:28;0.80;99.90
15203;DHT22;7702;51.046;5.184;2022-12-18T16:55:54;0.70;99.90
15203;DHT22;7702;51.046;5.184;2022-12-18T16:58:20;0.80;99.90
15203;DHT22;7702;51.046;5.184;2022-12-18T17:00:46;0.80;99.90
15203;DHT22;7702;51.046;5.184;2022-12-18T17:03:12;0.80;99.90
15203;DHT22;7702;51.046;5.184;2022-12-18T17:05:38;0.90;99.90
15203;DHT22;7702;51.046;5.184;2022-12-18T17:08:04;0.80;99.90
15203;DHT22;7702;51.046;5.184;2022-12-18T17:10:30;0.80;99.90
15203;DHT22;7702;51.046;5.184;2022-12-18T17:12:56;0.80;99.90
15203;DHT22;7702;51.046;5.184;2022-12-18T17:15:22;0.90;99.90
15203;DHT22;7702;51.046;5.184;2022-12-18T17:17:48;0.90;99.90
15203;DHT22;7702;51.046;5.184;2022-12-18T17:20:14;0.90;99.90
15203;DHT22;7702;51.046;5.184;2022-12-18T17:22:39;0.90;99.90
15203;DHT22;7702;51.046;5.184;2022-12-18T17:25:05;0.90;99.90
15203;DHT22;7702;51.046;5.184;2022-12-18T17:27:31;0.90;99.90
15203;DHT22;7702;51.046;5.184;2022-12-18T17:29:58;1.00;99.90
15203;DHT22;7702;51.046;5.184;2022-12-18T17:32:23;0.90;99.90
15203;DHT22;7702;51.046;5.184;2022-12-18T17:34:49;1.00;99.90
15203;DHT22;7702;51.046;5.184;2022-12-18T17:37:15;0.90;99.90
15203;DHT22;7702;51.046;5.184;2022-12-18T17:39:41;0.90;99.90
15203;DHT22;7702;51.046;5.184;2022-12-18T17:42:07;0.90;99.90
15203;DHT22;7702;51.046;5.184;2022-12-18T17:44:35;1.00;99.90
15203;DHT22;7702;51.046;5.184;2022-12-18T17:47:01;1.00;99.90
15203;DHT22;7702;51.046;5.184;2022-12-18T17:49:27;1.00;99.90
15203;DHT22;7702;51.046;5.184;2022-12-18T17:51:53;1.10;99.90
15203;DHT22;7702;51.046;5.184;2022-12-18T17:54:19;1.10;99.90
15203;DHT22;7702;51.046;5.184;2022-12-18T17:56:45;1.00;99.90
15203;DHT22;7702;51.046;5.184;2022-12-18T17:59:11;1.10;99.90
15203;DHT22;7702;51.046;5.184;2022-12-18T18:01:37;1.10;99.90
15203;DHT22;7702;51.046;5.184;2022-12-18T18:04:03;1.10;99.90
15203;DHT22;7702;51.046;5.184;2022-12-18T18:06:29;1.20;99.90
15203;DHT22;7702;51.046;5.184;2022-12-18T18:08:55;1.10;99.90
15203;DHT22;7702;51.046;5.184;2022-12-18T18:11:22;1.20;99.90
15203;DHT22;7702;51.046;5.184;2022-12-18T18:14:12;1.20;99.90
15203;DHT22;7702;51.046;5.184;2022-12-18T18:16:47;1.20;99.90
15203;DHT22;7702;51.046;5.184;2022-12-18T18:19:15;1.30;99.90
15203;DHT22;7702;51.046;5.184;2022-12-18T18:21:43;1.20;99.90